sensor_id;sensor_type;location;lat;lon;timestamp;P1;durP1;ratioP1;P2;durP2;ratioP2
61709;SDS011;47633;51.494;5.386;2022-12-11T00:01:43;12.30;;;7.93;;
61709;SDS011;47633;51.494;5.386;2022-12-11T00:04:09;14.13;;;9.23;;
61709;SDS011;47633;51.494;5.386;2022-12-11T00:06:34;14.02;;;8.63;;
61709;SDS011;47633;51.494;5.386;2022-12-11T00:08:59;14.20;;;8.93;;
61709;SDS011;47633;51.494;5.386;2022-12-11T00:11:25;13.93;;;8.90;;
61709;SDS011;47633;51.494;5.386;2022-12-11T00:13:51;16.60;;;9.68;;
61709;SDS011;47633;51.494;5.386;2022-12-11T00:16:16;12.80;;;8.45;;
61709;SDS011;47633;51.494;5.386;2022-12-11T00:18:41;12.80;;;8.18;;
61709;SDS011;47633;51.494;5.386;2022-12-11T00:21:10;16.38;;;10.25;;
61709;SDS011;47633;51.494;5.386;2022-12-11T00:23:38;13.05;;;8.13;;
61709;SDS011;47633;51.494;5.386;2022-12-11T00:26:09;13.80;;;8.52;;
61709;SDS011;47633;51.494;5.386;2022-12-11T00:28:36;12.98;;;8.32;;
61709;SDS011;47633;51.494;5.386;2022-12-11T00:31:05;12.85;;;8.57;;
61709;SDS011;47633;51.494;5.386;2022-12-11T00:33:33;13.65;;;8.10;;
61709;SDS011;47633;51.494;5.386;2022-12-11T00:35:58;13.65;;;8.43;;
61709;SDS011;47633;51.494;5.386;2022-12-11T00:38:24;13.02;;;8.20;;
61709;SDS011;47633;51.494;5.386;2022-12-11T00:40:50;14.55;;;9.18;;
61709;SDS011;47633;51.494;5.386;2022-12-11T00:43:15;14.65;;;8.88;;
61709;SDS011;47633;51.494;5.386;2022-12-11T00:45:41;14.43;;;9.00;;
61709;SDS011;47633;51.494;5.386;2022-12-11T00:48:08;12.57;;;8.65;;
61709;SDS011;47633;51.494;5.386;2022-12-11T00:50:34;13.73;;;7.97;;
61709;SDS011;47633;51.494;5.386;2022-12-11T00:53:00;13.55;;;8.45;;
61709;SDS011;47633;51.494;5.386;2022-12-11T00:55:27;13.27;;;8.75;;
61709;SDS011;47633;51.494;5.386;2022-12-11T00:57:53;14.25;;;8.48;;
61709;SDS011;47633;51.494;5.386;2022-12-11T01:00:19;13.90;;;8.65;;
61709;SDS011;47633;51.494;5.386;2022-12-11T01:02:46;12.82;;;8.20;;
61709;SDS011;47633;51.494;5.386;2022-12-11T01:05:12;13.38;;;8.35;;
61709;SDS011;47633;51.494;5.386;2022-12-11T01:07:37;14.02;;;8.40;;
61709;SDS011;47633;51.494;5.386;2022-12-11T01:10:02;13.75;;;8.30;;
61709;SDS011;47633;51.494;5.386;2022-12-11T01:12:46;12.45;;;8.63;;
61709;SDS011;47633;51.494;5.386;2022-12-11T01:15:12;13.23;;;8.20;;
61709;SDS011;47633;51.494;5.386;2022-12-11T01:17:37;13.85;;;8.40;;
61709;SDS011;47633;51.494;5.386;2022-12-11T01:20:03;13.73;;;8.00;;
61709;SDS011;47633;51.494;5.386;2022-12-11T01:22:29;11.27;;;7.88;;
61709;SDS011;47633;51.494;5.386;2022-12-11T01:24:55;11.63;;;7.47;;
61709;SDS011;47633;51.494;5.386;2022-12-11T01:27:21;11.75;;;7.93;;
61709;SDS011;47633;51.494;5.386;2022-12-11T01:29:46;12.10;;;8.15;;
61709;SDS011;47633;51.494;5.386;2022-12-11T01:32:11;11.43;;;8.00;;
61709;SDS011;47633;51.494;5.386;2022-12-11T01:34:37;12.98;;;8.05;;
61709;SDS011;47633;51.494;5.386;2022-12-11T01:37:03;13.05;;;7.45;;
61709;SDS011;47633;51.494;5.386;2022-12-11T01:39:28;11.68;;;7.55;;
61709;SDS011;47633;51.494;5.386;2022-12-11T01:41:57;12.23;;;8.10;;
61709;SDS011;47633;51.494;5.386;2022-12-11T01:46:50;10.40;;;7.10;;
61709;SDS011;47633;51.494;5.386;2022-12-11T01:49:15;11.48;;;8.10;;
61709;SDS011;47633;51.494;5.386;2022-12-11T01:51:52;10.02;;;7.15;;
61709;SDS011;47633;51.494;5.386;2022-12-11T01:54:23;12.13;;;7.65;;
61709;SDS011;47633;51.494;5.386;2022-12-11T01:56:52;10.80;;;7.28;;
61709;SDS011;47633;51.494;5.386;2022-12-11T01:59:21;11.68;;;7.60;;
61709;SDS011;47633;51.494;5.386;2022-12-11T02:01:49;10.52;;;7.28;;
61709;SDS011;47633;51.494;5.386;2022-12-11T02:04:21;12.30;;;7.50;;
61709;SDS011;47633;51.494;5.386;2022-12-11T02:06:48;11.43;;;8.00;;
61709;SDS011;47633;51.494;5.386;2022-12-11T02:09:19;10.95;;;7.30;;
61709;SDS011;47633;51.494;5.386;2022-12-11T02:14:31;11.10;;;7.60;;
61709;SDS011;47633;51.494;5.386;2022-12-11T02:16:59;11.80;;;7.55;;
61709;SDS011;47633;51.494;5.386;2022-12-11T02:27:45;12.60;;;7.45;;
61709;SDS011;47633;51.494;5.386;2022-12-11T02:30:17;10.93;;;7.00;;
61709;SDS011;47633;51.494;5.386;2022-12-11T02:32:52;11.65;;;6.93;;
61709;SDS011;47633;51.494;5.386;2022-12-11T02:35:21;11.82;;;6.65;;
61709;SDS011;47633;51.494;5.386;2022-12-11T02:38:25;9.27;;;6.07;;
61709;SDS011;47633;51.494;5.386;2022-12-11T02:41:03;10.98;;;6.78;;
61709;SDS011;47633;51.494;5.386;2022-12-11T02:43:31;11.05;;;6.85;;
61709;SDS011;47633;51.494;5.386;2022-12-11T02:45:58;9.68;;;6.00;;
61709;SDS011;47633;51.494;5.386;2022-12-11T02:48:24;10.25;;;6.75;;
61709;SDS011;47633;51.494;5.386;2022-12-11T02:50:51;10.35;;;6.90;;
61709;SDS011;47633;51.494;5.386;2022-12-11T02:53:23;10.10;;;6.95;;
61709;SDS011;47633;51.494;5.386;2022-12-11T02:55:53;9.20;;;6.38;;
61709;SDS011;47633;51.494;5.386;2022-12-11T02:58:29;8.98;;;5.85;;
61709;SDS011;47633;51.494;5.386;2022-12-11T03:00:56;9.82;;;6.25;;
61709;SDS011;47633;51.494;5.386;2022-12-11T03:03:22;9.82;;;6.10;;
61709;SDS011;47633;51.494;5.386;2022-12-11T03:05:47;9.35;;;5.68;;
61709;SDS011;47633;51.494;5.386;2022-12-11T03:08:13;11.23;;;6.50;;
61709;SDS011;47633;51.494;5.386;2022-12-11T03:10:41;9.43;;;5.90;;
61709;SDS011;47633;51.494;5.386;2022-12-11T03:13:06;8.82;;;5.90;;
61709;SDS011;47633;51.494;5.386;2022-12-11T03:15:40;10.25;;;6.20;;
61709;SDS011;47633;51.494;5.386;2022-12-11T03:21:07;10.85;;;5.47;;
61709;SDS011;47633;51.494;5.386;2022-12-11T03:26:19;8.73;;;5.82;;
61709;SDS011;47633;51.494;5.386;2022-12-11T03:28:53;7.72;;;5.50;;
61709;SDS011;47633;51.494;5.386;2022-12-11T03:31:26;9.45;;;5.68;;
61709;SDS011;47633;51.494;5.386;2022-12-11T03:33:57;7.18;;;4.75;;
61709;SDS011;47633;51.494;5.386;2022-12-11T03:36:30;8.68;;;5.35;;
61709;SDS011;47633;51.494;5.386;2022-12-11T03:39:08;7.93;;;4.97;;
61709;SDS011;47633;51.494;5.386;2022-12-11T03:41:39;8.43;;;5.25;;
61709;SDS011;47633;51.494;5.386;2022-12-11T03:44:06;9.77;;;5.05;;
61709;SDS011;47633;51.494;5.386;2022-12-11T03:46:34;9.30;;;4.90;;
61709;SDS011;47633;51.494;5.386;2022-12-11T03:49:04;7.88;;;4.80;;
61709;SDS011;47633;51.494;5.386;2022-12-11T03:51:33;7.75;;;4.95;;
61709;SDS011;47633;51.494;5.386;2022-12-11T03:53:59;6.85;;;4.57;;
61709;SDS011;47633;51.494;5.386;2022-12-11T03:56:25;7.70;;;4.68;;
61709;SDS011;47633;51.494;5.386;2022-12-11T03:58:53;8.75;;;4.70;;
61709;SDS011;47633;51.494;5.386;2022-12-11T04:01:18;9.68;;;5.18;;
61709;SDS011;47633;51.494;5.386;2022-12-11T04:03:44;8.60;;;4.85;;
61709;SDS011;47633;51.494;5.386;2022-12-11T04:06:09;7.80;;;4.50;;
61709;SDS011;47633;51.494;5.386;2022-12-11T04:08:34;11.18;;;4.93;;
61709;SDS011;47633;51.494;5.386;2022-12-11T04:11:01;8.43;;;4.75;;
61709;SDS011;47633;51.494;5.386;2022-12-11T04:13:46;7.95;;;4.50;;
61709;SDS011;47633;51.494;5.386;2022-12-11T04:16:31;7.20;;;4.25;;
61709;SDS011;47633;51.494;5.386;2022-12-11T04:18:56;10.13;;;4.30;;
61709;SDS011;47633;51.494;5.386;2022-12-11T04:21:50;7.40;;;4.30;;
61709;SDS011;47633;51.494;5.386;2022-12-11T04:24:34;7.37;;;3.97;;
61709;SDS011;47633;51.494;5.386;2022-12-11T04:27:00;8.25;;;4.20;;
61709;SDS011;47633;51.494;5.386;2022-12-11T04:29:25;6.57;;;4.13;;
61709;SDS011;47633;51.494;5.386;2022-12-11T04:31:50;7.30;;;4.18;;
61709;SDS011;47633;51.494;5.386;2022-12-11T04:34:16;7.72;;;3.97;;
61709;SDS011;47633;51.494;5.386;2022-12-11T04:36:41;6.03;;;3.75;;
61709;SDS011;47633;51.494;5.386;2022-12-11T04:39:07;7.00;;;3.90;;
61709;SDS011;47633;51.494;5.386;2022-12-11T04:41:32;6.90;;;4.22;;
61709;SDS011;47633;51.494;5.386;2022-12-11T04:43:58;5.78;;;3.78;;
61709;SDS011;47633;51.494;5.386;2022-12-11T04:46:23;7.15;;;3.28;;
61709;SDS011;47633;51.494;5.386;2022-12-11T04:48:50;6.28;;;3.72;;
61709;SDS011;47633;51.494;5.386;2022-12-11T04:51:16;6.60;;;3.90;;
61709;SDS011;47633;51.494;5.386;2022-12-11T04:53:42;7.38;;;4.00;;
61709;SDS011;47633;51.494;5.386;2022-12-11T04:56:09;7.00;;;3.90;;
61709;SDS011;47633;51.494;5.386;2022-12-11T04:58:37;6.40;;;3.67;;
61709;SDS011;47633;51.494;5.386;2022-12-11T05:01:10;6.75;;;3.72;;
61709;SDS011;47633;51.494;5.386;2022-12-11T05:03:40;6.55;;;3.80;;
61709;SDS011;47633;51.494;5.386;2022-12-11T05:06:07;6.93;;;3.80;;
61709;SDS011;47633;51.494;5.386;2022-12-11T05:08:33;7.03;;;3.90;;
61709;SDS011;47633;51.494;5.386;2022-12-11T05:11:00;6.18;;;3.90;;
61709;SDS011;47633;51.494;5.386;2022-12-11T05:13:28;6.50;;;3.58;;
61709;SDS011;47633;51.494;5.386;2022-12-11T05:15:53;6.50;;;3.83;;
61709;SDS011;47633;51.494;5.386;2022-12-11T05:18:20;7.35;;;3.42;;
61709;SDS011;47633;51.494;5.386;2022-12-11T05:20:53;5.70;;;3.30;;
61709;SDS011;47633;51.494;5.386;2022-12-11T05:23:22;5.88;;;3.85;;
61709;SDS011;47633;51.494;5.386;2022-12-11T05:25:55;5.32;;;3.60;;
61709;SDS011;47633;51.494;5.386;2022-12-11T05:28:22;6.13;;;3.60;;
61709;SDS011;47633;51.494;5.386;2022-12-11T05:30:57;5.38;;;3.35;;
61709;SDS011;47633;51.494;5.386;2022-12-11T05:33:24;6.03;;;3.80;;
61709;SDS011;47633;51.494;5.386;2022-12-11T05:35:50;4.97;;;3.10;;
61709;SDS011;47633;51.494;5.386;2022-12-11T05:38:15;6.05;;;3.35;;
61709;SDS011;47633;51.494;5.386;2022-12-11T05:40:40;5.30;;;3.22;;
61709;SDS011;47633;51.494;5.386;2022-12-11T05:43:06;5.32;;;3.20;;
61709;SDS011;47633;51.494;5.386;2022-12-11T05:45:31;4.82;;;2.70;;
61709;SDS011;47633;51.494;5.386;2022-12-11T05:47:56;5.03;;;2.83;;
61709;SDS011;47633;51.494;5.386;2022-12-11T05:50:22;5.22;;;2.53;;
61709;SDS011;47633;51.494;5.386;2022-12-11T05:52:47;4.03;;;2.15;;
61709;SDS011;47633;51.494;5.386;2022-12-11T05:55:12;4.18;;;2.33;;
61709;SDS011;47633;51.494;5.386;2022-12-11T05:57:38;4.65;;;2.47;;
61709;SDS011;47633;51.494;5.386;2022-12-11T06:00:03;4.63;;;2.38;;
61709;SDS011;47633;51.494;5.386;2022-12-11T06:02:29;5.35;;;2.80;;
61709;SDS011;47633;51.494;5.386;2022-12-11T06:04:55;4.00;;;2.28;;
61709;SDS011;47633;51.494;5.386;2022-12-11T06:07:20;3.85;;;2.10;;
61709;SDS011;47633;51.494;5.386;2022-12-11T06:09:45;4.68;;;1.90;;
61709;SDS011;47633;51.494;5.386;2022-12-11T06:12:10;4.97;;;2.42;;
61709;SDS011;47633;51.494;5.386;2022-12-11T06:14:36;4.75;;;2.45;;
61709;SDS011;47633;51.494;5.386;2022-12-11T06:17:01;5.85;;;2.30;;
61709;SDS011;47633;51.494;5.386;2022-12-11T06:19:26;3.97;;;1.95;;
61709;SDS011;47633;51.494;5.386;2022-12-11T06:21:52;4.32;;;1.95;;
61709;SDS011;47633;51.494;5.386;2022-12-11T06:24:17;5.65;;;2.28;;
61709;SDS011;47633;51.494;5.386;2022-12-11T06:26:42;5.95;;;2.30;;
61709;SDS011;47633;51.494;5.386;2022-12-11T06:29:08;6.97;;;2.63;;
61709;SDS011;47633;51.494;5.386;2022-12-11T06:31:33;4.65;;;2.22;;
61709;SDS011;47633;51.494;5.386;2022-12-11T06:33:58;4.68;;;2.10;;
61709;SDS011;47633;51.494;5.386;2022-12-11T06:36:23;8.20;;;2.72;;
61709;SDS011;47633;51.494;5.386;2022-12-11T06:38:49;5.05;;;2.40;;
61709;SDS011;47633;51.494;5.386;2022-12-11T06:41:15;5.60;;;2.42;;
61709;SDS011;47633;51.494;5.386;2022-12-11T06:43:40;4.75;;;2.13;;
61709;SDS011;47633;51.494;5.386;2022-12-11T06:46:08;4.20;;;1.88;;
61709;SDS011;47633;51.494;5.386;2022-12-11T06:48:36;5.63;;;2.10;;
61709;SDS011;47633;51.494;5.386;2022-12-11T06:51:05;5.88;;;2.40;;
61709;SDS011;47633;51.494;5.386;2022-12-11T06:53:32;4.78;;;2.28;;
61709;SDS011;47633;51.494;5.386;2022-12-11T06:56:01;6.10;;;1.90;;
61709;SDS011;47633;51.494;5.386;2022-12-11T06:58:28;7.00;;;2.40;;
61709;SDS011;47633;51.494;5.386;2022-12-11T07:00:53;6.28;;;2.40;;
61709;SDS011;47633;51.494;5.386;2022-12-11T07:03:18;5.15;;;2.08;;
61709;SDS011;47633;51.494;5.386;2022-12-11T07:05:43;5.18;;;2.05;;
61709;SDS011;47633;51.494;5.386;2022-12-11T07:08:09;4.40;;;1.90;;
61709;SDS011;47633;51.494;5.386;2022-12-11T07:10:34;6.53;;;2.05;;
61709;SDS011;47633;51.494;5.386;2022-12-11T07:12:59;4.75;;;2.00;;
61709;SDS011;47633;51.494;5.386;2022-12-11T07:15:24;6.70;;;2.38;;
61709;SDS011;47633;51.494;5.386;2022-12-11T07:17:50;4.35;;;2.28;;
61709;SDS011;47633;51.494;5.386;2022-12-11T07:20:15;6.70;;;2.35;;
61709;SDS011;47633;51.494;5.386;2022-12-11T07:22:41;6.70;;;2.10;;
61709;SDS011;47633;51.494;5.386;2022-12-11T07:25:06;5.97;;;2.05;;
61709;SDS011;47633;51.494;5.386;2022-12-11T07:27:32;4.40;;;2.42;;
61709;SDS011;47633;51.494;5.386;2022-12-11T07:29:57;5.32;;;2.30;;
61709;SDS011;47633;51.494;5.386;2022-12-11T07:32:23;5.65;;;2.00;;
61709;SDS011;47633;51.494;5.386;2022-12-11T07:34:48;6.80;;;2.45;;
61709;SDS011;47633;51.494;5.386;2022-12-11T07:37:13;4.88;;;2.25;;
61709;SDS011;47633;51.494;5.386;2022-12-11T07:39:39;5.68;;;2.30;;
61709;SDS011;47633;51.494;5.386;2022-12-11T07:42:04;4.25;;;1.88;;
61709;SDS011;47633;51.494;5.386;2022-12-11T07:44:29;4.40;;;1.85;;
61709;SDS011;47633;51.494;5.386;2022-12-11T07:46:55;5.75;;;2.08;;
61709;SDS011;47633;51.494;5.386;2022-12-11T07:49:20;5.28;;;2.30;;
61709;SDS011;47633;51.494;5.386;2022-12-11T07:51:45;6.78;;;2.58;;
61709;SDS011;47633;51.494;5.386;2022-12-11T07:54:11;4.38;;;2.00;;
61709;SDS011;47633;51.494;5.386;2022-12-11T07:56:41;7.32;;;2.15;;
61709;SDS011;47633;51.494;5.386;2022-12-11T07:59:07;6.38;;;2.20;;
61709;SDS011;47633;51.494;5.386;2022-12-11T08:01:33;4.90;;;2.15;;
61709;SDS011;47633;51.494;5.386;2022-12-11T08:04:00;5.53;;;2.40;;
61709;SDS011;47633;51.494;5.386;2022-12-11T08:06:28;4.88;;;2.17;;
61709;SDS011;47633;51.494;5.386;2022-12-11T08:08:55;5.47;;;2.03;;
61709;SDS011;47633;51.494;5.386;2022-12-11T08:11:22;6.35;;;2.72;;
61709;SDS011;47633;51.494;5.386;2022-12-11T08:13:47;5.75;;;2.25;;
61709;SDS011;47633;51.494;5.386;2022-12-11T08:16:13;7.25;;;2.72;;
61709;SDS011;47633;51.494;5.386;2022-12-11T08:18:40;5.60;;;2.28;;
61709;SDS011;47633;51.494;5.386;2022-12-11T08:21:07;7.75;;;2.65;;
61709;SDS011;47633;51.494;5.386;2022-12-11T08:23:38;6.50;;;2.63;;
61709;SDS011;47633;51.494;5.386;2022-12-11T08:26:04;5.03;;;2.22;;
61709;SDS011;47633;51.494;5.386;2022-12-11T08:28:31;5.80;;;2.55;;
61709;SDS011;47633;51.494;5.386;2022-12-11T08:30:57;4.88;;;2.63;;
61709;SDS011;47633;51.494;5.386;2022-12-11T08:33:22;8.43;;;2.92;;
61709;SDS011;47633;51.494;5.386;2022-12-11T08:35:48;5.95;;;2.70;;
61709;SDS011;47633;51.494;5.386;2022-12-11T08:38:13;6.70;;;2.90;;
61709;SDS011;47633;51.494;5.386;2022-12-11T08:40:39;5.78;;;2.22;;
61709;SDS011;47633;51.494;5.386;2022-12-11T08:43:05;7.10;;;2.65;;
61709;SDS011;47633;51.494;5.386;2022-12-11T08:45:30;6.43;;;2.60;;
61709;SDS011;47633;51.494;5.386;2022-12-11T08:47:57;7.03;;;2.70;;
61709;SDS011;47633;51.494;5.386;2022-12-11T08:50:23;6.32;;;2.78;;
61709;SDS011;47633;51.494;5.386;2022-12-11T08:52:48;4.70;;;2.50;;
61709;SDS011;47633;51.494;5.386;2022-12-11T08:55:13;6.35;;;2.70;;
61709;SDS011;47633;51.494;5.386;2022-12-11T08:57:39;10.57;;;3.13;;
61709;SDS011;47633;51.494;5.386;2022-12-11T09:00:05;7.03;;;2.47;;
61709;SDS011;47633;51.494;5.386;2022-12-11T09:02:33;6.25;;;2.85;;
61709;SDS011;47633;51.494;5.386;2022-12-11T09:04:58;11.05;;;2.92;;
61709;SDS011;47633;51.494;5.386;2022-12-11T09:07:23;6.90;;;2.90;;
61709;SDS011;47633;51.494;5.386;2022-12-11T09:09:49;8.25;;;2.97;;
61709;SDS011;47633;51.494;5.386;2022-12-11T09:12:15;6.90;;;2.70;;
61709;SDS011;47633;51.494;5.386;2022-12-11T09:14:40;8.75;;;2.90;;
61709;SDS011;47633;51.494;5.386;2022-12-11T09:17:05;7.03;;;2.75;;
61709;SDS011;47633;51.494;5.386;2022-12-11T09:19:31;7.57;;;3.08;;
61709;SDS011;47633;51.494;5.386;2022-12-11T09:21:56;6.63;;;3.17;;
61709;SDS011;47633;51.494;5.386;2022-12-11T09:24:21;6.07;;;2.72;;
61709;SDS011;47633;51.494;5.386;2022-12-11T09:26:47;5.65;;;2.83;;
61709;SDS011;47633;51.494;5.386;2022-12-11T09:29:12;6.63;;;3.08;;
61709;SDS011;47633;51.494;5.386;2022-12-11T09:31:37;7.40;;;3.00;;
61709;SDS011;47633;51.494;5.386;2022-12-11T09:34:04;8.07;;;3.10;;
61709;SDS011;47633;51.494;5.386;2022-12-11T09:36:32;6.70;;;2.65;;
61709;SDS011;47633;51.494;5.386;2022-12-11T09:38:59;7.63;;;2.75;;
61709;SDS011;47633;51.494;5.386;2022-12-11T09:46:35;9.50;;;3.47;;
61709;SDS011;47633;51.494;5.386;2022-12-11T09:49:01;6.80;;;3.20;;
61709;SDS011;47633;51.494;5.386;2022-12-11T09:53:58;6.50;;;3.10;;
61709;SDS011;47633;51.494;5.386;2022-12-11T10:10:37;8.20;;;3.00;;
61709;SDS011;47633;51.494;5.386;2022-12-11T10:13:09;7.63;;;3.53;;
61709;SDS011;47633;51.494;5.386;2022-12-11T10:18:27;12.02;;;3.08;;
61709;SDS011;47633;51.494;5.386;2022-12-11T10:20:54;7.07;;;2.97;;
61709;SDS011;47633;51.494;5.386;2022-12-11T10:23:21;6.25;;;3.05;;
61709;SDS011;47633;51.494;5.386;2022-12-11T10:25:55;11.20;;;3.25;;
61709;SDS011;47633;51.494;5.386;2022-12-11T10:28:26;6.63;;;3.10;;
61709;SDS011;47633;51.494;5.386;2022-12-11T10:31:14;6.80;;;3.72;;
61709;SDS011;47633;51.494;5.386;2022-12-11T10:34:14;6.80;;;3.05;;
61709;SDS011;47633;51.494;5.386;2022-12-11T10:36:54;8.27;;;3.33;;
61709;SDS011;47633;51.494;5.386;2022-12-11T10:39:21;6.82;;;2.60;;
61709;SDS011;47633;51.494;5.386;2022-12-11T10:41:48;9.02;;;2.95;;
61709;SDS011;47633;51.494;5.386;2022-12-11T10:44:20;7.47;;;3.28;;
61709;SDS011;47633;51.494;5.386;2022-12-11T10:51:53;8.50;;;3.25;;
61709;SDS011;47633;51.494;5.386;2022-12-11T10:57:05;7.00;;;3.10;;
61709;SDS011;47633;51.494;5.386;2022-12-11T10:59:37;5.40;;;2.85;;
61709;SDS011;47633;51.494;5.386;2022-12-11T11:02:24;7.22;;;3.08;;
61709;SDS011;47633;51.494;5.386;2022-12-11T11:04:53;9.50;;;3.75;;
61709;SDS011;47633;51.494;5.386;2022-12-11T11:07:22;5.45;;;2.65;;
61709;SDS011;47633;51.494;5.386;2022-12-11T11:09:49;7.60;;;3.38;;
61709;SDS011;47633;51.494;5.386;2022-12-11T11:12:26;8.25;;;3.28;;
61709;SDS011;47633;51.494;5.386;2022-12-11T11:15:04;7.70;;;3.33;;
61709;SDS011;47633;51.494;5.386;2022-12-11T11:17:31;6.22;;;3.42;;
61709;SDS011;47633;51.494;5.386;2022-12-11T11:20:11;7.15;;;3.08;;
61709;SDS011;47633;51.494;5.386;2022-12-11T11:22:45;8.93;;;3.83;;
61709;SDS011;47633;51.494;5.386;2022-12-11T11:25:15;5.95;;;2.83;;
61709;SDS011;47633;51.494;5.386;2022-12-11T11:27:44;8.05;;;3.45;;
61709;SDS011;47633;51.494;5.386;2022-12-11T11:30:34;7.45;;;3.08;;
61709;SDS011;47633;51.494;5.386;2022-12-11T11:33:11;9.95;;;4.25;;
61709;SDS011;47633;51.494;5.386;2022-12-11T11:35:49;9.48;;;3.50;;
61709;SDS011;47633;51.494;5.386;2022-12-11T11:38:23;9.60;;;4.00;;
61709;SDS011;47633;51.494;5.386;2022-12-11T11:41:08;7.05;;;3.30;;
61709;SDS011;47633;51.494;5.386;2022-12-11T11:43:42;9.00;;;3.30;;
61709;SDS011;47633;51.494;5.386;2022-12-11T11:46:16;8.15;;;3.13;;
61709;SDS011;47633;51.494;5.386;2022-12-11T11:51:57;6.97;;;3.22;;
61709;SDS011;47633;51.494;5.386;2022-12-11T11:57:40;8.43;;;3.58;;
61709;SDS011;47633;51.494;5.386;2022-12-11T12:00:17;9.13;;;3.67;;
61709;SDS011;47633;51.494;5.386;2022-12-11T12:02:44;7.97;;;4.05;;
61709;SDS011;47633;51.494;5.386;2022-12-11T12:05:14;11.35;;;4.07;;
61709;SDS011;47633;51.494;5.386;2022-12-11T12:07:51;12.57;;;3.58;;
61709;SDS011;47633;51.494;5.386;2022-12-11T12:13:00;8.90;;;3.75;;
61709;SDS011;47633;51.494;5.386;2022-12-11T12:15:44;7.40;;;3.50;;
61709;SDS011;47633;51.494;5.386;2022-12-11T12:26:51;9.32;;;3.15;;
61709;SDS011;47633;51.494;5.386;2022-12-11T12:32:34;9.88;;;4.25;;
61709;SDS011;47633;51.494;5.386;2022-12-11T12:45:32;6.30;;;3.10;;
61709;SDS011;47633;51.494;5.386;2022-12-11T12:48:17;10.00;;;3.35;;
61709;SDS011;47633;51.494;5.386;2022-12-11T12:50:45;6.97;;;2.80;;
61709;SDS011;47633;51.494;5.386;2022-12-11T12:53:19;7.97;;;3.40;;
61709;SDS011;47633;51.494;5.386;2022-12-11T12:55:48;6.65;;;3.53;;
61709;SDS011;47633;51.494;5.386;2022-12-11T13:01:17;8.60;;;3.65;;
61709;SDS011;47633;51.494;5.386;2022-12-11T13:08:54;7.50;;;3.20;;
61709;SDS011;47633;51.494;5.386;2022-12-11T13:11:20;7.25;;;3.40;;
61709;SDS011;47633;51.494;5.386;2022-12-11T13:14:01;10.20;;;3.50;;
61709;SDS011;47633;51.494;5.386;2022-12-11T13:16:45;7.97;;;3.38;;
61709;SDS011;47633;51.494;5.386;2022-12-11T13:24:25;5.90;;;3.10;;
61709;SDS011;47633;51.494;5.386;2022-12-11T13:26:52;7.75;;;3.05;;
61709;SDS011;47633;51.494;5.386;2022-12-11T13:29:28;7.18;;;2.97;;
61709;SDS011;47633;51.494;5.386;2022-12-11T13:32:19;6.38;;;3.20;;
61709;SDS011;47633;51.494;5.386;2022-12-11T13:34:57;6.68;;;3.10;;
61709;SDS011;47633;51.494;5.386;2022-12-11T13:37:33;8.87;;;3.00;;
61709;SDS011;47633;51.494;5.386;2022-12-11T13:40:07;6.88;;;3.45;;
61709;SDS011;47633;51.494;5.386;2022-12-11T13:43:04;6.55;;;3.40;;
61709;SDS011;47633;51.494;5.386;2022-12-11T13:45:45;8.50;;;3.30;;
61709;SDS011;47633;51.494;5.386;2022-12-11T13:48:35;8.18;;;3.38;;
61709;SDS011;47633;51.494;5.386;2022-12-11T13:51:02;9.27;;;3.47;;
61709;SDS011;47633;51.494;5.386;2022-12-11T13:53:29;7.18;;;3.05;;
61709;SDS011;47633;51.494;5.386;2022-12-11T13:56:04;11.40;;;3.20;;
61709;SDS011;47633;51.494;5.386;2022-12-11T13:58:36;7.70;;;3.60;;
61709;SDS011;47633;51.494;5.386;2022-12-11T14:01:10;8.95;;;3.53;;
61709;SDS011;47633;51.494;5.386;2022-12-11T14:03:52;6.32;;;3.60;;
61709;SDS011;47633;51.494;5.386;2022-12-11T14:06:19;8.52;;;3.60;;
61709;SDS011;47633;51.494;5.386;2022-12-11T14:08:47;9.93;;;2.85;;
61709;SDS011;47633;51.494;5.386;2022-12-11T14:11:21;7.00;;;3.10;;
61709;SDS011;47633;51.494;5.386;2022-12-11T14:13:52;5.72;;;3.05;;
61709;SDS011;47633;51.494;5.386;2022-12-11T14:16:19;6.60;;;3.17;;
61709;SDS011;47633;51.494;5.386;2022-12-11T14:18:47;7.93;;;3.30;;
61709;SDS011;47633;51.494;5.386;2022-12-11T14:21:18;6.22;;;2.80;;
61709;SDS011;47633;51.494;5.386;2022-12-11T14:23:55;6.97;;;2.95;;
61709;SDS011;47633;51.494;5.386;2022-12-11T14:26:24;6.05;;;2.65;;
61709;SDS011;47633;51.494;5.386;2022-12-11T14:28:51;7.72;;;3.03;;
61709;SDS011;47633;51.494;5.386;2022-12-11T14:31:20;6.65;;;2.85;;
61709;SDS011;47633;51.494;5.386;2022-12-11T14:33:53;6.60;;;3.10;;
61709;SDS011;47633;51.494;5.386;2022-12-11T14:36:22;6.85;;;2.90;;
61709;SDS011;47633;51.494;5.386;2022-12-11T14:38:50;9.35;;;3.05;;
61709;SDS011;47633;51.494;5.386;2022-12-11T14:41:24;8.73;;;3.42;;
61709;SDS011;47633;51.494;5.386;2022-12-11T14:43:55;6.70;;;2.72;;
61709;SDS011;47633;51.494;5.386;2022-12-11T14:46:25;5.85;;;2.88;;
61709;SDS011;47633;51.494;5.386;2022-12-11T14:49:00;8.30;;;2.85;;
61709;SDS011;47633;51.494;5.386;2022-12-11T14:51:37;7.80;;;2.75;;
61709;SDS011;47633;51.494;5.386;2022-12-11T14:54:05;9.73;;;2.80;;
61709;SDS011;47633;51.494;5.386;2022-12-11T14:56:38;6.57;;;2.70;;
61709;SDS011;47633;51.494;5.386;2022-12-11T14:59:06;6.90;;;2.90;;
61709;SDS011;47633;51.494;5.386;2022-12-11T15:01:43;5.45;;;2.88;;
61709;SDS011;47633;51.494;5.386;2022-12-11T15:04:31;7.55;;;2.80;;
61709;SDS011;47633;51.494;5.386;2022-12-11T15:06:57;8.43;;;3.33;;
61709;SDS011;47633;51.494;5.386;2022-12-11T15:11:58;7.88;;;2.90;;
61709;SDS011;47633;51.494;5.386;2022-12-11T15:14:56;8.80;;;3.13;;
61709;SDS011;47633;51.494;5.386;2022-12-11T15:17:24;7.18;;;2.72;;
61709;SDS011;47633;51.494;5.386;2022-12-11T15:19:52;6.60;;;2.65;;
61709;SDS011;47633;51.494;5.386;2022-12-11T15:22:21;6.88;;;3.00;;
61709;SDS011;47633;51.494;5.386;2022-12-11T15:24:50;6.00;;;2.90;;
61709;SDS011;47633;51.494;5.386;2022-12-11T15:27:27;8.38;;;2.80;;
61709;SDS011;47633;51.494;5.386;2022-12-11T15:29:57;7.90;;;3.03;;
61709;SDS011;47633;51.494;5.386;2022-12-11T15:32:23;6.32;;;2.85;;
61709;SDS011;47633;51.494;5.386;2022-12-11T15:34:50;6.82;;;2.67;;
61709;SDS011;47633;51.494;5.386;2022-12-11T15:37:22;5.68;;;2.53;;
61709;SDS011;47633;51.494;5.386;2022-12-11T15:39:47;8.82;;;2.85;;
61709;SDS011;47633;51.494;5.386;2022-12-11T15:42:14;10.13;;;3.25;;
61709;SDS011;47633;51.494;5.386;2022-12-11T15:44:44;8.25;;;2.97;;
61709;SDS011;47633;51.494;5.386;2022-12-11T15:47:10;9.45;;;2.95;;
61709;SDS011;47633;51.494;5.386;2022-12-11T15:49:39;7.30;;;2.72;;
61709;SDS011;47633;51.494;5.386;2022-12-11T15:52:04;7.25;;;3.10;;
61709;SDS011;47633;51.494;5.386;2022-12-11T15:54:30;6.32;;;2.75;;
61709;SDS011;47633;51.494;5.386;2022-12-11T15:56:55;6.43;;;2.80;;
61709;SDS011;47633;51.494;5.386;2022-12-11T15:59:20;8.10;;;2.90;;
61709;SDS011;47633;51.494;5.386;2022-12-11T16:01:46;8.70;;;2.78;;
61709;SDS011;47633;51.494;5.386;2022-12-11T16:04:11;6.65;;;2.50;;
61709;SDS011;47633;51.494;5.386;2022-12-11T16:06:36;7.60;;;2.65;;
61709;SDS011;47633;51.494;5.386;2022-12-11T16:09:02;7.78;;;3.08;;
61709;SDS011;47633;51.494;5.386;2022-12-11T16:11:29;6.22;;;2.25;;
61709;SDS011;47633;51.494;5.386;2022-12-11T16:13:54;6.25;;;2.28;;
61709;SDS011;47633;51.494;5.386;2022-12-11T16:16:19;8.00;;;2.50;;
61709;SDS011;47633;51.494;5.386;2022-12-11T16:18:44;6.72;;;2.70;;
61709;SDS011;47633;51.494;5.386;2022-12-11T16:21:10;10.75;;;3.00;;
61709;SDS011;47633;51.494;5.386;2022-12-11T16:23:35;7.20;;;2.60;;
61709;SDS011;47633;51.494;5.386;2022-12-11T16:26:04;6.18;;;2.65;;
61709;SDS011;47633;51.494;5.386;2022-12-11T16:28:31;6.55;;;2.60;;
61709;SDS011;47633;51.494;5.386;2022-12-11T16:30:56;5.88;;;2.67;;
61709;SDS011;47633;51.494;5.386;2022-12-11T16:33:21;7.97;;;2.70;;
61709;SDS011;47633;51.494;5.386;2022-12-11T16:35:47;7.03;;;2.95;;